createdAt,value
2022-12-11T00:07:40.857Z,25.60
2022-12-11T00:27:40.601Z,24.60
2022-12-11T00:47:40.315Z,23.70
2022-12-11T01:07:40.035Z,24.70
2022-12-11T01:27:39.779Z,21.60
2022-12-11T01:47:39.491Z,20.10
2022-12-11T02:07:39.230Z,19.00
2022-12-11T02:27:38.945Z,25.60
2022-12-11T02:47:38.708Z,19.20
2022-12-11T03:07:38.412Z,19.00
2022-12-11T03:27:38.119Z,23.60
2022-12-11T03:47:37.829Z,27.50
2022-12-11T04:07:37.576Z,21.20
2022-12-11T04:27:37.283Z,19.10
2022-12-11T04:47:37.040Z,19.10
2022-12-11T05:07:36.738Z,26.60
2022-12-11T05:27:36.471Z,20.30
2022-12-11T05:47:36.242Z,22.80
2022-12-11T06:07:35.962Z,28.70
2022-12-11T06:27:35.775Z,21.70
2022-12-11T06:47:35.391Z,21.50
2022-12-11T07:07:35.155Z,18.30
2022-12-11T07:27:34.884Z,29.70
2022-12-11T07:47:34.666Z,19.60
2022-12-11T08:07:34.383Z,21.90
2022-12-11T08:27:34.120Z,21.80
2022-12-11T08:47:33.855Z,17.90
2022-12-11T09:07:33.590Z,12.80
2022-12-11T09:27:33.334Z,18.80
2022-12-11T09:47:33.083Z,10.90
2022-12-11T10:07:32.857Z,14.30
2022-12-11T10:27:32.529Z,15.50
2022-12-11T10:47:32.255Z,37.20
2022-12-11T11:07:32.005Z,14.30
2022-12-11T11:27:32.735Z,17.60
2022-12-11T11:47:31.488Z,21.00
2022-12-11T12:07:31.217Z,17.20
2022-12-11T12:27:51.507Z,17.60
2022-12-11T12:47:30.657Z,16.60
2022-12-11T13:07:30.671Z,15.40
2022-12-11T13:27:30.123Z,15.70
2022-12-11T13:47:29.866Z,14.10
2022-12-11T14:07:29.649Z,18.20
2022-12-11T14:27:29.348Z,21.30
2022-12-11T14:47:29.257Z,16.70
2022-12-11T15:07:28.807Z,18.70
2022-12-11T15:27:28.620Z,30.90
2022-12-11T15:47:28.375Z,29.30
2022-12-11T16:07:28.082Z,38.40
2022-12-11T16:27:27.787Z,34.50
2022-12-11T16:47:27.570Z,26.00
2022-12-11T17:07:27.311Z,27.90
2022-12-11T17:27:27.002Z,30.40
2022-12-11T17:47:26.767Z,34.60
2022-12-11T18:07:26.529Z,36.90
2022-12-11T18:27:26.241Z,39.20
2022-12-11T18:47:25.980Z,35.00
2022-12-11T19:07:25.715Z,32.20
2022-12-11T19:27:25.466Z,46.10
2022-12-11T19:47:25.201Z,60.20
2022-12-11T20:07:30.349Z,46.40
2022-12-11T20:27:24.841Z,51.90
2022-12-11T20:47:24.444Z,48.40
2022-12-11T21:07:24.168Z,46.60
2022-12-11T21:27:23.889Z,49.50
2022-12-11T21:47:23.629Z,63.60
2022-12-11T22:07:23.368Z,40.80
2022-12-11T22:27:24.006Z,44.60
2022-12-11T22:47:22.917Z,39.90
2022-12-11T23:07:22.665Z,54.00
2022-12-11T23:27:22.390Z,49.10
2022-12-11T23:47:22.167Z,74.60
